• Join FlightAware (Why Join?)
  • Login
  • US Flag 
09:51AM EDT


 

Airport Tracker/Info


-or-


 

Live Flight TrackerFlight Track Log ✈ N935SS ✈ 19-Apr-2013 ✈ KHPN - TXKF / BDA

Flight Track Log - Related Links

Times and Time Zones

All times are in EDT time to prevent confusion due to time zone crossing. See the N935SS flight status page for this flight to view local times or setup timezone preferences in your user account.

Time Position Orientation Groundspeed Altitude Reporting Facility
EDT Latitude Longitude Course Direction KTS MPH feet Rate Location/Type
06:48AM 41.0500 -73.7000 270° West 160 184 1,800  Level New York TRACON
06:49AM 41.0500 -73.7333 270° West 196 226 3,600 2,100 Climbing New York TRACON
06:50AM 41.0833 -73.8000 304° West 233 268 5,900 2,040 Climbing New York TRACON
06:51AM 41.0333 -73.8667 225° Southwest 233 268 7,900 1,080 Climbing New York TRACON
06:52AM 40.9833 -73.8500 166° South 248 285 8,100 60 Climbing New York TRACON
06:53AM 40.9000 -73.8333 171° South 254 292 8,100 360 Level New York TRACON
06:54AM 40.8500 -73.7833 143° Southeast 262 302 8,900 1,440 Climbing New York TRACON
06:56AM 40.7486 -73.6856 144° Southeast 305 351 12,000 1,560 Climbing New York Center
06:56AM 40.6653 -73.5972 141° Southeast 336 387 13,200 1,800 Climbing New York Center
06:57AM 40.5942 -73.5261 143° Southeast 354 407 15,600 2,280 Climbing New York Center
06:59AM 40.5189 -73.4439 140° Southeast 361 415 17,900 2,220 Climbing New York Center
07:00AM 40.4396 -73.3449 128° Southeast  Level Estimated
07:00AM 40.4397 -73.3508 129° Southeast 356 410 20,100  Level New York Center
07:01AM 40.3000 -73.1606 134° Southeast 363 418 23,900 1,860 Climbing New York Center
07:03AM 40.2269 -73.0628 134° Southeast 369 425 25,700 1,740 Climbing New York Center
07:03AM 40.1558 -72.9653 134° Southeast 369 425 27,400 1,500 Climbing New York Center
07:05AM 40.0786 -72.8653 135° Southeast 374 430 28,700 1,140 Climbing New York Center
07:05AM 40.0033 -72.7628 134° Southeast 379 436 29,700 960 Climbing New York Center
07:06AM 39.9239 -72.6547 134° Southeast 395 455 30,700 600 Climbing New York Center
07:07AM 39.9351 -72.5894 129° Southeast  Level FlightAware Approximate
07:07AM 39.8400 -72.5444 135° Southeast 407 468 31,000  Level New York Center
07:08AM 39.7522 -72.4286 135° Southeast 432 497 31,000  Level New York Center
07:09AM 39.6622 -72.3081 134° Southeast 445 512 31,000  Level New York Center
07:11AM 39.5761 -72.1956 135° Southeast 471 542 31,000  Level New York Center
07:11AM 39.4878 -72.0753 134° Southeast 471 542 31,000  Level New York Center
07:12AM 39.3953 -71.9556 135° Southeast 471 542 31,000  Level New York Center
07:13AM 39.3028 -71.8358 135° Southeast 471 542 31,000  Level New York Center
07:15AM 39.2100 -71.7164 135° Southeast 471 542 31,000  Level New York Center
07:15AM 39.1192 -71.5975 135° Southeast 471 542 31,000  Level New York Center
07:16AM 39.0261 -71.4842 137° Southeast 466 536 31,000  Level New York Center
07:18AM 38.9350 -71.3656 135° Southeast 466 536 31,000  Level New York Center
07:18AM 38.8439 -71.2475 135° Southeast 466 536 31,000  Level New York Center
07:19AM 38.7506 -71.1297 135° Southeast 466 536 31,000  Level New York Center
07:21AM 38.6592 -71.0122 135° Southeast 466 536 31,000  Level New York Center
07:22AM 38.5633 -70.8950 136° Southeast 466 536 31,000  Level New York Center
07:23AM 38.4739 -70.7700 132° Southeast 466 536 31,000  Level New York Center
07:23AM 38.3800 -70.6589 137° Southeast 466 536 31,000  Level New York Center
07:25AM 38.2756 -70.5319 136° Southeast 461 531 31,000  Level New York Center
07:25AM 38.1961 -70.4344 136° Southeast 461 531 31,000  Level New York Center
07:26AM 38.0894 -70.3108 138° Southeast 461 531 31,000  Level New York Center
07:27AM 38.0453 -70.2372 127° Southeast 461 531 31,000  Level New York Center
07:29AM 37.9297 -70.0589 129° Southeast 469 540 31,000  Level New York Center
07:30AM 38.1333 -70.3667 133° Southeast 481 554 31,000  Level New York Oceanic (ODAPS)
07:36AM 37.2162 -69.1307 134° Southeast 481 554 31,000  Level FlightAware Transoceanic
07:37AM 37.1238 -69.0087 134° Southeast 481 554 31,000  Level FlightAware Transoceanic
07:38AM 37.0312 -68.8871 134° Southeast 481 554 31,000  Level FlightAware Transoceanic
07:39AM 36.9385 -68.7658 134° Southeast 481 554 31,000  Level FlightAware Transoceanic
07:40AM 36.8458 -68.6447 134° Southeast 481 554 31,000  Level FlightAware Transoceanic
07:41AM 36.7528 -68.5240 134° Southeast 481 554 31,000  Level FlightAware Transoceanic
07:42AM 36.6598 -68.4035 134° Southeast 481 554 31,000  Level FlightAware Transoceanic
07:43AM 36.5667 -68.2833 142° Southeast 481 554 31,000  Level FlightAware Transoceanic
07:44AM 36.4673 -68.1863 142° Southeast 481 554 31,000  Level FlightAware Transoceanic
07:44AM 36.5667 -68.2833 142° Southeast 429 494 31,000  Level New York Oceanic (ODAPS)
07:45AM 36.3678 -68.0895 142° Southeast 481 554 31,000  Level FlightAware Transoceanic
07:46AM 36.2683 -67.9930 142° Southeast 481 554 31,000  Level FlightAware Transoceanic
07:47AM 36.1686 -67.8967 142° Southeast 481 554 31,000  Level FlightAware Transoceanic
07:48AM 36.0689 -67.8006 142° Southeast 481 554 31,000  Level FlightAware Transoceanic
07:49AM 35.9692 -67.7048 142° Southeast 481 554 31,000  Level FlightAware Transoceanic
07:50AM 35.8693 -67.6093 142° Southeast 481 554 31,000  Level FlightAware Transoceanic
07:51AM 35.8138 -67.5563 142° Southeast 429 494 31,000  Level FlightAware Transoceanic
07:52AM 35.7194 -67.4664 142° Southeast 429 494 31,000  Level FlightAware Transoceanic
07:53AM 35.6249 -67.3767 142° Southeast 429 494 31,000  Level FlightAware Transoceanic
07:54AM 35.5303 -67.2872 142° Southeast 429 494 31,000  Level FlightAware Transoceanic
07:55AM 35.4357 -67.1979 142° Southeast 429 494 31,000  Level FlightAware Transoceanic
07:56AM 35.3410 -67.1089 143° Southeast 429 494 31,000  Level FlightAware Transoceanic
07:57AM 35.2463 -67.0200 143° Southeast 429 494 31,000  Level FlightAware Transoceanic
07:58AM 35.1515 -66.9314 143° Southeast 429 494 31,000  Level FlightAware Transoceanic
07:59AM 35.0566 -66.8429 143° Southeast 429 494 31,000  Level FlightAware Transoceanic
08:00AM 34.9617 -66.7547 143° Southeast 429 494 31,000 -660 Level FlightAware Transoceanic
08:00AM 34.8667 -66.6667 146° Southeast 372 428 30,000  Descending New York Oceanic (ODAPS)
08:01AM 34.8667 -66.6667 146° Southeast 429 494 31,000 660 Climbing FlightAware Transoceanic
08:02AM 34.7631 -66.5817 146° Southeast 429 494 31,000  Level FlightAware Transoceanic
08:03AM 34.6596 -66.4969 146° Southeast 429 494 31,000  Level FlightAware Transoceanic
08:04AM 34.5559 -66.4123 146° Southeast 429 494 31,000  Level FlightAware Transoceanic
08:05AM 34.4522 -66.3280 146° Southeast 429 494 31,000  Level FlightAware Transoceanic
08:06AM 34.3485 -66.2439 146° Southeast 429 494 31,000 -540 Level FlightAware Transoceanic
08:07AM 34.2662 -66.1773 146° Southeast 372 428 30,000 -540 Descending FlightAware Transoceanic
08:08AM 34.1802 -66.1079 146° Southeast 372 428 30,000  Level FlightAware Transoceanic
08:09AM 34.0942 -66.0387 146° Southeast 372 428 30,000  Level FlightAware Transoceanic
08:10AM 34.0082 -65.9697 146° Southeast 372 428 30,000  Level FlightAware Transoceanic
08:11AM 33.9221 -65.9007 146° Southeast 372 428 30,000  Level FlightAware Transoceanic
08:12AM 33.8360 -65.8320 146° Southeast 372 428 30,000  Level FlightAware Transoceanic
08:13AM 33.7499 -65.7633 147° Southeast 372 428 30,000  Level FlightAware Transoceanic
08:14AM 33.6637 -65.6948 147° Southeast 372 428 30,000  Level FlightAware Transoceanic
08:15AM 33.5775 -65.6264 147° Southeast 372 428 30,000  Level FlightAware Transoceanic
08:16AM 33.4913 -65.5582 147° Southeast 372 428 30,000  Level FlightAware Transoceanic
08:17AM 33.4050 -65.4901 147° Southeast 372 428 30,000  Level FlightAware Transoceanic
08:18AM 33.3186 -65.4222 147° Southeast 372 428 30,000  Level FlightAware Transoceanic
08:19AM 33.2323 -65.3543 147° Southeast 372 428 30,000  Level FlightAware Transoceanic
08:20AM 33.1459 -65.2866 147° Southeast 372 428 30,000  Level FlightAware Transoceanic
08:21AM 33.0594 -65.2191 147° Southeast 372 428 30,000  Level FlightAware Transoceanic
08:22AM 32.9730 -65.1517 147° Southeast 372 428 30,000  Level FlightAware Transoceanic
08:23AM 32.5678 -64.8379 147° Southeast 373 429 30,000 -19,800 Level FlightAware Transoceanic
08:23AM 34.8667 -66.6667 146° Southeast 373 429 9,600  Descending New York Oceanic (ODAPS)
08:24AM 32.4673 -64.7605 147° Southeast 373 429 30,000 21,060 Climbing FlightAware Transoceanic
08:25AM 32.4689 -64.7725 148° Southeast  Level FlightAware Approximate
08:26AM 32.3727 -64.7003 148° Southeast  Level FlightAware Approximate
08:27AM 32.3640 -64.6787 90° East  Level Estimated
08:28AM 32.3640 -64.6787 90° East  Level Estimated
08:29AM 34.2993 -66.2121 146° Southeast  Level FlightAware Approximate
08:30AM 34.2185 -66.1480 147° Southeast  Level FlightAware Approximate
08:31AM 34.1390 -66.0816 145° Southeast  Level FlightAware Approximate
08:32AM 34.0598 -66.0146 145° Southeast  Level FlightAware Approximate
08:33AM 33.9806 -65.9478 146° Southeast  Level FlightAware Approximate
08:34AM 33.9005 -65.8828 146° Southeast  Level FlightAware Approximate
08:35AM 33.8202 -65.8178 146° Southeast  Level FlightAware Approximate
08:36AM 33.7400 -65.7530 146° Southeast  Level FlightAware Approximate
08:37AM 33.6597 -65.6883 146° Southeast  Level FlightAware Approximate
08:38AM 33.5794 -65.6237 146° Southeast  Level FlightAware Approximate
08:39AM 33.4991 -65.5593 146° Southeast  Level FlightAware Approximate
08:40AM 33.4181 -65.4961 147° Southeast  Level FlightAware Approximate
08:41AM 33.3367 -65.4337 147° Southeast  Level FlightAware Approximate
08:42AM 33.2552 -65.3715 147° Southeast  Level FlightAware Approximate
08:43AM 33.1738 -65.3092 147° Southeast  Level FlightAware Approximate
08:44AM 33.0929 -65.2460 147° Southeast  Level FlightAware Approximate
08:45AM 33.0120 -65.1830 147° Southeast  Level FlightAware Approximate
08:46AM 32.9310 -65.1200 147° Southeast  Level FlightAware Approximate
08:47AM 32.8501 -65.0572 147° Southeast  Level FlightAware Approximate
08:48AM 32.7691 -64.9945 147° Southeast  Level FlightAware Approximate
08:49AM 32.6880 -64.9319 147° Southeast  Level FlightAware Approximate
08:50AM 32.6069 -64.8694 147° Southeast  Level FlightAware Approximate
08:51AM 32.5258 -64.8070 147° Southeast  Level FlightAware Approximate
08:52AM 32.4415 -64.7519 148° Southeast  Level FlightAware Approximate
08:53AM 32.3598 -64.6907 148° Southeast  Level FlightAware Approximate
08:54AM 32.3640 -64.6787 90° East  Level Estimated
08:55AM 32.3640 -64.6787 90° East  Level Estimated
08:56AM 32.3640 -64.6787 90° East  Level Estimated
08:57AM 32.3640 -64.6787 90° East  Level Estimated
08:58AM 32.3640 -64.6787 90° East  Level Estimated
08:59AM 32.3640 -64.6787 90° East  Level Estimated
09:00AM 32.3640 -64.6787 90° East  Level Estimated
09:01AM 32.3640 -64.6787 90° East  Level Estimated
09:02AM 32.3640 -64.6787 90° East  Level Estimated
09:03AM 32.3640 -64.6787 90° East  Level Estimated
09:04AM 32.3640 -64.6787 90° East  Level Estimated
09:05AM 32.3640 -64.6787 90° East  Level Estimated